sensor_id;sensor_type;location;lat;lon;timestamp;temperature;humidity
13198;DHT22;6664;52.514;13.440;2023-02-02T00:00:31;4.20;99.90
13198;DHT22;6664;52.514;13.440;2023-02-02T00:03:18;4.30;99.90
13198;DHT22;6664;52.514;13.440;2023-02-02T00:06:05;4.40;99.90
13198;DHT22;6664;52.514;13.440;2023-02-02T00:08:51;4.50;99.90
13198;DHT22;6664;52.514;13.440;2023-02-02T00:11:39;4.50;99.90
13198;DHT22;6664;52.514;13.440;2023-02-02T00:14:24;4.50;99.90
13198;DHT22;6664;52.514;13.440;2023-02-02T00:17:11;4.60;99.90
13198;DHT22;6664;52.514;13.440;2023-02-02T00:19:59;4.60;99.90
13198;DHT22;6664;52.514;13.440;2023-02-02T00:22:44;4.60;99.90
13198;DHT22;6664;52.514;13.440;2023-02-02T00:25:30;4.70;99.90
13198;DHT22;6664;52.514;13.440;2023-02-02T00:28:18;4.80;99.90
13198;DHT22;6664;52.514;13.440;2023-02-02T00:31:04;4.80;99.90
13198;DHT22;6664;52.514;13.440;2023-02-02T00:33:52;4.80;99.90
13198;DHT22;6664;52.514;13.440;2023-02-02T00:36:38;4.90;99.90
13198;DHT22;6664;52.514;13.440;2023-02-02T00:39:24;4.90;99.90
13198;DHT22;6664;52.514;13.440;2023-02-02T00:42:12;5.00;99.90
13198;DHT22;6664;52.514;13.440;2023-02-02T00:45:00;4.90;99.90
13198;DHT22;6664;52.514;13.440;2023-02-02T00:48:01;5.00;99.90
13198;DHT22;6664;52.514;13.440;2023-02-02T00:50:47;5.00;99.90
13198;DHT22;6664;52.514;13.440;2023-02-02T00:53:32;4.90;99.90
13198;DHT22;6664;52.514;13.440;2023-02-02T00:56:18;4.90;99.90
13198;DHT22;6664;52.514;13.440;2023-02-02T00:59:04;4.90;99.90
13198;DHT22;6664;52.514;13.440;2023-02-02T01:01:49;4.90;99.90
13198;DHT22;6664;52.514;13.440;2023-02-02T01:04:38;4.90;99.90
13198;DHT22;6664;52.514;13.440;2023-02-02T01:07:24;4.90;99.90
13198;DHT22;6664;52.514;13.440;2023-02-02T01:10:12;5.00;99.90
13198;DHT22;6664;52.514;13.440;2023-02-02T01:12:58;5.00;99.90
13198;DHT22;6664;52.514;13.440;2023-02-02T01:15:47;4.90;99.90
13198;DHT22;6664;52.514;13.440;2023-02-02T01:18:35;4.90;99.90
13198;DHT22;6664;52.514;13.440;2023-02-02T01:21:23;4.90;99.90
13198;DHT22;6664;52.514;13.440;2023-02-02T01:24:11;4.80;99.90
13198;DHT22;6664;52.514;13.440;2023-02-02T01:26:56;4.80;99.90
13198;DHT22;6664;52.514;13.440;2023-02-02T01:29:42;4.80;99.90
13198;DHT22;6664;52.514;13.440;2023-02-02T01:32:28;4.80;99.90
13198;DHT22;6664;52.514;13.440;2023-02-02T01:35:15;4.80;99.90
13198;DHT22;6664;52.514;13.440;2023-02-02T01:38:03;4.50;99.90
13198;DHT22;6664;52.514;13.440;2023-02-02T01:40:50;4.50;99.90
13198;DHT22;6664;52.514;13.440;2023-02-02T01:46:35;4.50;99.90
13198;DHT22;6664;52.514;13.440;2023-02-02T01:49:23;4.60;99.90
13198;DHT22;6664;52.514;13.440;2023-02-02T01:52:09;4.70;99.90
13198;DHT22;6664;52.514;13.440;2023-02-02T01:55:00;4.70;99.90
13198;DHT22;6664;52.514;13.440;2023-02-02T01:58:40;4.80;99.90
13198;DHT22;6664;52.514;13.440;2023-02-02T02:01:06;4.60;99.90
13198;DHT22;6664;52.514;13.440;2023-02-02T02:03:55;4.60;99.90
13198;DHT22;6664;52.514;13.440;2023-02-02T02:22:07;4.90;99.90
13198;DHT22;6664;52.514;13.440;2023-02-02T02:25:38;4.90;99.90
13198;DHT22;6664;52.514;13.440;2023-02-02T02:29:14;5.00;99.90
13198;DHT22;6664;52.514;13.440;2023-02-02T02:32:36;5.10;99.90
13198;DHT22;6664;52.514;13.440;2023-02-02T02:41:22;5.20;99.90
13198;DHT22;6664;52.514;13.440;2023-02-02T02:44:13;5.20;99.90
13198;DHT22;6664;52.514;13.440;2023-02-02T02:47:00;5.30;99.90
13198;DHT22;6664;52.514;13.440;2023-02-02T02:49:47;5.30;99.90
13198;DHT22;6664;52.514;13.440;2023-02-02T02:52:34;5.40;99.90
13198;DHT22;6664;52.514;13.440;2023-02-02T02:55:20;5.40;99.90
13198;DHT22;6664;52.514;13.440;2023-02-02T02:58:17;5.40;99.90
13198;DHT22;6664;52.514;13.440;2023-02-02T03:01:23;5.40;99.90
13198;DHT22;6664;52.514;13.440;2023-02-02T03:04:21;5.40;99.90
13198;DHT22;6664;52.514;13.440;2023-02-02T03:07:28;5.50;99.90
13198;DHT22;6664;52.514;13.440;2023-02-02T03:10:20;5.50;99.90
13198;DHT22;6664;52.514;13.440;2023-02-02T03:13:09;5.50;99.90
13198;DHT22;6664;52.514;13.440;2023-02-02T03:15:54;5.50;99.90
13198;DHT22;6664;52.514;13.440;2023-02-02T03:18:40;5.50;99.90
13198;DHT22;6664;52.514;13.440;2023-02-02T03:21:28;5.50;99.90
13198;DHT22;6664;52.514;13.440;2023-02-02T03:24:13;5.50;99.90
13198;DHT22;6664;52.514;13.440;2023-02-02T03:27:01;5.50;99.90
13198;DHT22;6664;52.514;13.440;2023-02-02T03:29:48;5.50;99.90
13198;DHT22;6664;52.514;13.440;2023-02-02T03:32:36;5.50;99.90
13198;DHT22;6664;52.514;13.440;2023-02-02T03:35:25;5.40;99.90
13198;DHT22;6664;52.514;13.440;2023-02-02T03:38:11;5.50;99.90
13198;DHT22;6664;52.514;13.440;2023-02-02T03:40:56;5.40;99.90
13198;DHT22;6664;52.514;13.440;2023-02-02T03:43:44;5.40;99.90
13198;DHT22;6664;52.514;13.440;2023-02-02T03:46:29;5.40;99.90
13198;DHT22;6664;52.514;13.440;2023-02-02T03:49:18;5.40;99.90
13198;DHT22;6664;52.514;13.440;2023-02-02T03:52:04;5.40;99.90
13198;DHT22;6664;52.514;13.440;2023-02-02T03:54:50;5.40;99.90
13198;DHT22;6664;52.514;13.440;2023-02-02T03:57:38;5.40;99.90
13198;DHT22;6664;52.514;13.440;2023-02-02T04:00:25;5.40;99.90
13198;DHT22;6664;52.514;13.440;2023-02-02T04:03:11;5.40;99.90
13198;DHT22;6664;52.514;13.440;2023-02-02T04:05:56;5.40;99.90
13198;DHT22;6664;52.514;13.440;2023-02-02T04:08:44;5.30;99.90
13198;DHT22;6664;52.514;13.440;2023-02-02T04:11:32;5.30;99.90
13198;DHT22;6664;52.514;13.440;2023-02-02T04:14:18;5.40;99.90
13198;DHT22;6664;52.514;13.440;2023-02-02T04:17:03;5.40;99.90
13198;DHT22;6664;52.514;13.440;2023-02-02T04:19:49;5.40;99.90
13198;DHT22;6664;52.514;13.440;2023-02-02T04:22:39;5.40;99.90
13198;DHT22;6664;52.514;13.440;2023-02-02T04:25:25;5.40;99.90
13198;DHT22;6664;52.514;13.440;2023-02-02T04:28:13;5.40;99.90
13198;DHT22;6664;52.514;13.440;2023-02-02T04:31:01;5.40;99.90
13198;DHT22;6664;52.514;13.440;2023-02-02T04:33:47;5.40;99.90
13198;DHT22;6664;52.514;13.440;2023-02-02T04:36:32;5.40;99.90
13198;DHT22;6664;52.514;13.440;2023-02-02T04:39:22;5.40;99.90
13198;DHT22;6664;52.514;13.440;2023-02-02T04:42:08;5.40;99.90
13198;DHT22;6664;52.514;13.440;2023-02-02T04:44:54;5.40;99.90
13198;DHT22;6664;52.514;13.440;2023-02-02T04:47:42;5.40;99.90
13198;DHT22;6664;52.514;13.440;2023-02-02T04:50:30;5.40;99.90
13198;DHT22;6664;52.514;13.440;2023-02-02T04:53:16;5.40;97.30
13198;DHT22;6664;52.514;13.440;2023-02-02T04:56:12;5.40;95.60
13198;DHT22;6664;52.514;13.440;2023-02-02T04:58:58;5.40;94.60
13198;DHT22;6664;52.514;13.440;2023-02-02T05:01:46;5.50;94.60
13198;DHT22;6664;52.514;13.440;2023-02-02T05:04:32;5.50;92.50
13198;DHT22;6664;52.514;13.440;2023-02-02T05:07:18;5.50;92.40
13198;DHT22;6664;52.514;13.440;2023-02-02T05:10:04;5.50;93.10
13198;DHT22;6664;52.514;13.440;2023-02-02T05:12:54;5.40;93.10
13198;DHT22;6664;52.514;13.440;2023-02-02T05:15:39;5.40;93.60
13198;DHT22;6664;52.514;13.440;2023-02-02T05:18:25;5.40;93.80
13198;DHT22;6664;52.514;13.440;2023-02-02T05:21:11;5.30;93.60
13198;DHT22;6664;52.514;13.440;2023-02-02T05:23:59;5.30;93.70
13198;DHT22;6664;52.514;13.440;2023-02-02T05:26:46;5.30;93.40
13198;DHT22;6664;52.514;13.440;2023-02-02T05:29:34;5.20;93.30
13198;DHT22;6664;52.514;13.440;2023-02-02T05:32:22;5.20;93.20
13198;DHT22;6664;52.514;13.440;2023-02-02T05:35:09;5.20;93.80
13198;DHT22;6664;52.514;13.440;2023-02-02T05:37:59;5.20;92.60
13198;DHT22;6664;52.514;13.440;2023-02-02T05:40:47;5.20;92.80
13198;DHT22;6664;52.514;13.440;2023-02-02T05:43:33;5.20;92.10
13198;DHT22;6664;52.514;13.440;2023-02-02T05:46:21;5.30;90.10
13198;DHT22;6664;52.514;13.440;2023-02-02T05:49:09;5.30;90.80
13198;DHT22;6664;52.514;13.440;2023-02-02T05:51:59;5.30;91.10
13198;DHT22;6664;52.514;13.440;2023-02-02T05:54:44;5.30;90.20
13198;DHT22;6664;52.514;13.440;2023-02-02T05:57:30;5.30;89.80
13198;DHT22;6664;52.514;13.440;2023-02-02T06:00:16;5.30;88.70
13198;DHT22;6664;52.514;13.440;2023-02-02T06:03:02;5.30;89.30
13198;DHT22;6664;52.514;13.440;2023-02-02T06:05:48;5.30;87.20
13198;DHT22;6664;52.514;13.440;2023-02-02T06:08:34;5.30;86.40
13198;DHT22;6664;52.514;13.440;2023-02-02T06:11:20;5.30;86.00
13198;DHT22;6664;52.514;13.440;2023-02-02T06:14:05;5.30;84.40
13198;DHT22;6664;52.514;13.440;2023-02-02T06:16:53;5.30;84.50
13198;DHT22;6664;52.514;13.440;2023-02-02T06:19:39;5.30;83.20
13198;DHT22;6664;52.514;13.440;2023-02-02T06:22:24;5.30;83.10
13198;DHT22;6664;52.514;13.440;2023-02-02T06:25:14;5.30;82.30
13198;DHT22;6664;52.514;13.440;2023-02-02T06:28:00;5.30;82.30
13198;DHT22;6664;52.514;13.440;2023-02-02T06:30:45;5.30;81.90
13198;DHT22;6664;52.514;13.440;2023-02-02T06:33:31;5.30;81.70
13198;DHT22;6664;52.514;13.440;2023-02-02T06:36:17;5.30;80.90
13198;DHT22;6664;52.514;13.440;2023-02-02T06:39:03;5.30;80.50
13198;DHT22;6664;52.514;13.440;2023-02-02T06:41:50;5.30;80.30
13198;DHT22;6664;52.514;13.440;2023-02-02T06:44:38;5.30;80.30
13198;DHT22;6664;52.514;13.440;2023-02-02T06:47:24;5.30;80.20
13198;DHT22;6664;52.514;13.440;2023-02-02T06:50:11;5.20;79.80
13198;DHT22;6664;52.514;13.440;2023-02-02T06:52:56;5.20;79.30
13198;DHT22;6664;52.514;13.440;2023-02-02T06:55:41;5.20;79.20
13198;DHT22;6664;52.514;13.440;2023-02-02T06:58:30;5.20;78.80
13198;DHT22;6664;52.514;13.440;2023-02-02T07:01:16;5.20;78.20
13198;DHT22;6664;52.514;13.440;2023-02-02T07:04:01;5.20;77.70
13198;DHT22;6664;52.514;13.440;2023-02-02T07:06:47;5.20;77.40
13198;DHT22;6664;52.514;13.440;2023-02-02T07:09:33;5.20;76.50
13198;DHT22;6664;52.514;13.440;2023-02-02T07:12:19;5.10;77.20
13198;DHT22;6664;52.514;13.440;2023-02-02T07:15:05;5.10;76.30
13198;DHT22;6664;52.514;13.440;2023-02-02T07:17:53;5.10;74.90
13198;DHT22;6664;52.514;13.440;2023-02-02T07:20:38;5.20;72.40
13198;DHT22;6664;52.514;13.440;2023-02-02T07:23:26;5.20;71.90
13198;DHT22;6664;52.514;13.440;2023-02-02T07:26:12;5.30;71.20
13198;DHT22;6664;52.514;13.440;2023-02-02T07:28:58;5.30;69.50
13198;DHT22;6664;52.514;13.440;2023-02-02T07:31:43;5.30;68.20
13198;DHT22;6664;52.514;13.440;2023-02-02T07:34:29;5.20;67.90
13198;DHT22;6664;52.514;13.440;2023-02-02T07:37:15;5.00;68.20
13198;DHT22;6664;52.514;13.440;2023-02-02T07:40:00;4.90;68.80
13198;DHT22;6664;52.514;13.440;2023-02-02T07:42:49;4.80;68.70
13198;DHT22;6664;52.514;13.440;2023-02-02T07:45:34;4.70;69.30
13198;DHT22;6664;52.514;13.440;2023-02-02T07:48:20;4.70;69.60
13198;DHT22;6664;52.514;13.440;2023-02-02T07:51:08;4.60;70.20
13198;DHT22;6664;52.514;13.440;2023-02-02T07:53:55;4.60;70.50
13198;DHT22;6664;52.514;13.440;2023-02-02T07:56:42;4.60;71.10
13198;DHT22;6664;52.514;13.440;2023-02-02T07:59:30;4.60;71.30
13198;DHT22;6664;52.514;13.440;2023-02-02T08:02:19;4.60;71.50
13198;DHT22;6664;52.514;13.440;2023-02-02T08:05:04;4.70;71.80
13198;DHT22;6664;52.514;13.440;2023-02-02T08:07:52;4.60;73.20
13198;DHT22;6664;52.514;13.440;2023-02-02T08:10:38;4.60;73.90
13198;DHT22;6664;52.514;13.440;2023-02-02T08:13:26;4.60;75.30
13198;DHT22;6664;52.514;13.440;2023-02-02T08:16:12;4.60;76.50
13198;DHT22;6664;52.514;13.440;2023-02-02T08:18:58;4.70;76.60
13198;DHT22;6664;52.514;13.440;2023-02-02T08:21:44;4.80;77.50
13198;DHT22;6664;52.514;13.440;2023-02-02T08:24:31;4.80;77.90
13198;DHT22;6664;52.514;13.440;2023-02-02T08:27:16;4.90;78.60
13198;DHT22;6664;52.514;13.440;2023-02-02T08:30:02;4.90;79.50
13198;DHT22;6664;52.514;13.440;2023-02-02T08:32:47;5.00;78.80
13198;DHT22;6664;52.514;13.440;2023-02-02T08:35:38;5.00;78.60
13198;DHT22;6664;52.514;13.440;2023-02-02T08:38:26;5.10;78.80
13198;DHT22;6664;52.514;13.440;2023-02-02T08:41:14;5.10;78.60
13198;DHT22;6664;52.514;13.440;2023-02-02T08:44:06;5.10;79.10
13198;DHT22;6664;52.514;13.440;2023-02-02T08:46:55;5.00;79.10
13198;DHT22;6664;52.514;13.440;2023-02-02T08:49:41;5.10;79.20
13198;DHT22;6664;52.514;13.440;2023-02-02T08:52:31;5.00;79.40
13198;DHT22;6664;52.514;13.440;2023-02-02T08:55:17;5.00;79.30
13198;DHT22;6664;52.514;13.440;2023-02-02T08:58:02;5.00;79.60
13198;DHT22;6664;52.514;13.440;2023-02-02T09:00:49;5.10;79.00
13198;DHT22;6664;52.514;13.440;2023-02-02T09:03:35;5.20;78.30
13198;DHT22;6664;52.514;13.440;2023-02-02T09:06:31;5.50;77.60
13198;DHT22;6664;52.514;13.440;2023-02-02T09:09:16;5.80;75.60
13198;DHT22;6664;52.514;13.440;2023-02-02T09:12:03;6.00;73.60
13198;DHT22;6664;52.514;13.440;2023-02-02T09:14:48;6.00;72.00
13198;DHT22;6664;52.514;13.440;2023-02-02T09:17:36;6.10;71.70
13198;DHT22;6664;52.514;13.440;2023-02-02T09:20:23;6.10;71.10
13198;DHT22;6664;52.514;13.440;2023-02-02T09:23:14;6.20;70.10
13198;DHT22;6664;52.514;13.440;2023-02-02T09:29:00;6.00;69.70
13198;DHT22;6664;52.514;13.440;2023-02-02T09:31:48;6.20;69.00
13198;DHT22;6664;52.514;13.440;2023-02-02T09:34:39;6.30;69.40
13198;DHT22;6664;52.514;13.440;2023-02-02T09:37:25;6.40;68.60
13198;DHT22;6664;52.514;13.440;2023-02-02T09:40:19;6.60;67.60
13198;DHT22;6664;52.514;13.440;2023-02-02T09:46:05;6.70;65.20
13198;DHT22;6664;52.514;13.440;2023-02-02T09:49:01;6.70;64.60
13198;DHT22;6664;52.514;13.440;2023-02-02T09:51:56;6.70;65.20
13198;DHT22;6664;52.514;13.440;2023-02-02T09:54:47;6.80;64.40
13198;DHT22;6664;52.514;13.440;2023-02-02T09:57:44;6.70;62.40
13198;DHT22;6664;52.514;13.440;2023-02-02T10:00:43;6.90;62.40
13198;DHT22;6664;52.514;13.440;2023-02-02T10:03:34;6.90;61.20
13198;DHT22;6664;52.514;13.440;2023-02-02T10:06:36;6.80;60.00
13198;DHT22;6664;52.514;13.440;2023-02-02T10:09:41;6.70;59.90
13198;DHT22;6664;52.514;13.440;2023-02-02T10:12:53;6.50;60.50
13198;DHT22;6664;52.514;13.440;2023-02-02T10:16:01;6.60;57.80
13198;DHT22;6664;52.514;13.440;2023-02-02T10:18:58;6.60;57.60
13198;DHT22;6664;52.514;13.440;2023-02-02T10:22:06;6.50;59.70
13198;DHT22;6664;52.514;13.440;2023-02-02T10:24:56;6.60;59.70
13198;DHT22;6664;52.514;13.440;2023-02-02T10:28:03;6.70;59.40
13198;DHT22;6664;52.514;13.440;2023-02-02T10:30:57;6.90;58.60
13198;DHT22;6664;52.514;13.440;2023-02-02T10:33:53;6.70;56.60
13198;DHT22;6664;52.514;13.440;2023-02-02T10:36:54;6.50;56.30
13198;DHT22;6664;52.514;13.440;2023-02-02T10:46:04;6.50;53.50
13198;DHT22;6664;52.514;13.440;2023-02-02T10:49:18;6.60;51.00
13198;DHT22;6664;52.514;13.440;2023-02-02T10:52:21;6.80;48.80
13198;DHT22;6664;52.514;13.440;2023-02-02T10:55:32;7.10;47.30
13198;DHT22;6664;52.514;13.440;2023-02-02T11:01:07;7.30;46.20
13198;DHT22;6664;52.514;13.440;2023-02-02T11:03:56;7.40;47.00
13198;DHT22;6664;52.514;13.440;2023-02-02T11:07:00;7.40;47.10
13198;DHT22;6664;52.514;13.440;2023-02-02T11:09:47;7.40;47.00
13198;DHT22;6664;52.514;13.440;2023-02-02T11:12:35;7.50;46.50
13198;DHT22;6664;52.514;13.440;2023-02-02T11:15:29;7.70;46.00
13198;DHT22;6664;52.514;13.440;2023-02-02T11:18:29;7.60;44.50
13198;DHT22;6664;52.514;13.440;2023-02-02T11:21:39;7.40;43.70
13198;DHT22;6664;52.514;13.440;2023-02-02T11:27:47;7.30;43.80
13198;DHT22;6664;52.514;13.440;2023-02-02T11:30:33;7.50;44.60
13198;DHT22;6664;52.514;13.440;2023-02-02T11:33:30;7.60;43.70
13198;DHT22;6664;52.514;13.440;2023-02-02T11:36:20;7.60;43.70
13198;DHT22;6664;52.514;13.440;2023-02-02T11:39:20;7.70;43.20
13198;DHT22;6664;52.514;13.440;2023-02-02T11:42:15;7.80;43.40
13198;DHT22;6664;52.514;13.440;2023-02-02T11:45:01;7.90;43.40
13198;DHT22;6664;52.514;13.440;2023-02-02T11:47:49;8.00;41.80
13198;DHT22;6664;52.514;13.440;2023-02-02T11:50:36;7.90;42.10
13198;DHT22;6664;52.514;13.440;2023-02-02T11:53:32;8.20;41.80
13198;DHT22;6664;52.514;13.440;2023-02-02T11:56:23;8.00;40.60
13198;DHT22;6664;52.514;13.440;2023-02-02T11:59:30;8.10;41.60
13198;DHT22;6664;52.514;13.440;2023-02-02T12:02:20;8.00;42.00
13198;DHT22;6664;52.514;13.440;2023-02-02T12:08:04;7.70;43.50
13198;DHT22;6664;52.514;13.440;2023-02-02T12:17:06;7.10;48.80
13198;DHT22;6664;52.514;13.440;2023-02-02T12:26:33;6.70;53.80
13198;DHT22;6664;52.514;13.440;2023-02-02T12:30:00;6.80;54.40
13198;DHT22;6664;52.514;13.440;2023-02-02T12:33:36;6.50;54.80
13198;DHT22;6664;52.514;13.440;2023-02-02T12:45:29;6.40;52.60
13198;DHT22;6664;52.514;13.440;2023-02-02T12:57:39;5.90;55.40
13198;DHT22;6664;52.514;13.440;2023-02-02T13:03:59;5.80;54.40
13198;DHT22;6664;52.514;13.440;2023-02-02T13:12:39;6.20;52.20
13198;DHT22;6664;52.514;13.440;2023-02-02T13:15:34;6.70;50.00
13198;DHT22;6664;52.514;13.440;2023-02-02T13:18:26;7.50;47.40
13198;DHT22;6664;52.514;13.440;2023-02-02T13:21:14;8.00;45.20
13198;DHT22;6664;52.514;13.440;2023-02-02T13:24:04;7.80;44.30
13198;DHT22;6664;52.514;13.440;2023-02-02T13:26:52;7.90;45.00
13198;DHT22;6664;52.514;13.440;2023-02-02T13:33:12;7.40;42.70
13198;DHT22;6664;52.514;13.440;2023-02-02T13:38:47;7.60;42.10
13198;DHT22;6664;52.514;13.440;2023-02-02T13:41:34;8.00;40.90
13198;DHT22;6664;52.514;13.440;2023-02-02T13:44:31;8.00;40.60
13198;DHT22;6664;52.514;13.440;2023-02-02T13:47:37;9.30;41.00
13198;DHT22;6664;52.514;13.440;2023-02-02T13:50:31;12.80;29.40
13198;DHT22;6664;52.514;13.440;2023-02-02T13:53:41;11.00;32.00
13198;DHT22;6664;52.514;13.440;2023-02-02T14:05:40;14.10;15.80
13198;DHT22;6664;52.514;13.440;2023-02-02T14:08:29;10.10;20.90
13198;DHT22;6664;52.514;13.440;2023-02-02T14:14:15;7.60;28.60
13198;DHT22;6664;52.514;13.440;2023-02-02T14:20:44;6.50;32.90
13198;DHT22;6664;52.514;13.440;2023-02-02T14:23:50;6.30;33.60
13198;DHT22;6664;52.514;13.440;2023-02-02T14:26:42;6.10;34.20
13198;DHT22;6664;52.514;13.440;2023-02-02T14:45:13;5.40;37.80
13198;DHT22;6664;52.514;13.440;2023-02-02T14:50:58;5.40;35.60
13198;DHT22;6664;52.514;13.440;2023-02-02T14:53:53;5.40;36.30
13198;DHT22;6664;52.514;13.440;2023-02-02T14:56:46;5.30;36.50
13198;DHT22;6664;52.514;13.440;2023-02-02T14:59:39;5.40;36.00
13198;DHT22;6664;52.514;13.440;2023-02-02T15:02:34;5.30;36.20
13198;DHT22;6664;52.514;13.440;2023-02-02T15:08:24;5.40;35.50
13198;DHT22;6664;52.514;13.440;2023-02-02T15:11:09;5.30;35.60
13198;DHT22;6664;52.514;13.440;2023-02-02T15:14:17;5.30;36.00
13198;DHT22;6664;52.514;13.440;2023-02-02T15:17:11;5.30;36.80
13198;DHT22;6664;52.514;13.440;2023-02-02T15:23:33;5.20;36.60
13198;DHT22;6664;52.514;13.440;2023-02-02T15:26:36;5.10;36.50
13198;DHT22;6664;52.514;13.440;2023-02-02T15:29:39;5.00;37.00
13198;DHT22;6664;52.514;13.440;2023-02-02T15:32:27;4.90;37.90
13198;DHT22;6664;52.514;13.440;2023-02-02T15:35:20;4.80;37.90
13198;DHT22;6664;52.514;13.440;2023-02-02T15:38:13;4.60;38.90
13198;DHT22;6664;52.514;13.440;2023-02-02T15:41:15;4.50;39.70
13198;DHT22;6664;52.514;13.440;2023-02-02T15:44:17;4.40;40.80
13198;DHT22;6664;52.514;13.440;2023-02-02T15:47:11;4.20;41.10
13198;DHT22;6664;52.514;13.440;2023-02-02T15:50:14;4.20;41.40
13198;DHT22;6664;52.514;13.440;2023-02-02T15:53:02;4.20;41.50
13198;DHT22;6664;52.514;13.440;2023-02-02T15:55:50;4.00;41.60
13198;DHT22;6664;52.514;13.440;2023-02-02T15:58:37;4.00;42.00
13198;DHT22;6664;52.514;13.440;2023-02-02T16:01:26;3.90;42.40
13198;DHT22;6664;52.514;13.440;2023-02-02T16:04:22;3.80;42.40
13198;DHT22;6664;52.514;13.440;2023-02-02T16:07:22;3.70;42.30
13198;DHT22;6664;52.514;13.440;2023-02-02T16:10:18;3.70;42.20
13198;DHT22;6664;52.514;13.440;2023-02-02T16:13:14;3.70;42.20
13198;DHT22;6664;52.514;13.440;2023-02-02T16:16:04;3.60;42.30
13198;DHT22;6664;52.514;13.440;2023-02-02T16:19:15;3.60;42.30
13198;DHT22;6664;52.514;13.440;2023-02-02T16:22:10;3.50;42.30
13198;DHT22;6664;52.514;13.440;2023-02-02T16:25:02;3.40;43.20
13198;DHT22;6664;52.514;13.440;2023-02-02T16:27:50;3.30;43.00
13198;DHT22;6664;52.514;13.440;2023-02-02T16:30:38;3.20;43.20
13198;DHT22;6664;52.514;13.440;2023-02-02T16:36:19;3.20;43.60
13198;DHT22;6664;52.514;13.440;2023-02-02T16:39:15;3.20;43.90
13198;DHT22;6664;52.514;13.440;2023-02-02T16:42:19;3.10;44.20
13198;DHT22;6664;52.514;13.440;2023-02-02T16:45:20;3.10;45.20
13198;DHT22;6664;52.514;13.440;2023-02-02T16:48:24;3.00;44.60
13198;DHT22;6664;52.514;13.440;2023-02-02T16:56:58;3.00;44.80
13198;DHT22;6664;52.514;13.440;2023-02-02T16:59:48;3.10;45.00
13198;DHT22;6664;52.514;13.440;2023-02-02T17:02:37;3.10;44.70
13198;DHT22;6664;52.514;13.440;2023-02-02T17:05:26;3.00;45.00
13198;DHT22;6664;52.514;13.440;2023-02-02T17:08:13;2.90;45.50
13198;DHT22;6664;52.514;13.440;2023-02-02T17:11:23;2.90;46.20
13198;DHT22;6664;52.514;13.440;2023-02-02T17:14:22;2.90;46.20
13198;DHT22;6664;52.514;13.440;2023-02-02T17:17:10;2.90;46.10
13198;DHT22;6664;52.514;13.440;2023-02-02T17:19:58;2.90;46.20
13198;DHT22;6664;52.514;13.440;2023-02-02T17:22:53;2.90;46.70
13198;DHT22;6664;52.514;13.440;2023-02-02T17:25:41;2.80;46.70
13198;DHT22;6664;52.514;13.440;2023-02-02T17:28:28;2.70;46.60
13198;DHT22;6664;52.514;13.440;2023-02-02T17:31:15;2.70;47.10
13198;DHT22;6664;52.514;13.440;2023-02-02T17:34:01;2.60;47.60
13198;DHT22;6664;52.514;13.440;2023-02-02T17:36:48;2.60;48.00
13198;DHT22;6664;52.514;13.440;2023-02-02T17:39:34;2.40;48.00
13198;DHT22;6664;52.514;13.440;2023-02-02T17:42:23;2.50;48.40
13198;DHT22;6664;52.514;13.440;2023-02-02T17:45:21;2.40;48.70
13198;DHT22;6664;52.514;13.440;2023-02-02T17:48:10;2.40;49.00
13198;DHT22;6664;52.514;13.440;2023-02-02T17:50:55;2.50;48.90
13198;DHT22;6664;52.514;13.440;2023-02-02T17:53:42;2.40;49.20
13198;DHT22;6664;52.514;13.440;2023-02-02T17:56:28;2.40;49.70
13198;DHT22;6664;52.514;13.440;2023-02-02T17:59:13;2.40;49.50
13198;DHT22;6664;52.514;13.440;2023-02-02T18:02:02;2.40;49.80
13198;DHT22;6664;52.514;13.440;2023-02-02T18:04:49;2.40;50.10
13198;DHT22;6664;52.514;13.440;2023-02-02T18:07:34;2.40;50.50
13198;DHT22;6664;52.514;13.440;2023-02-02T18:10:22;2.40;50.60
13198;DHT22;6664;52.514;13.440;2023-02-02T18:13:17;2.50;50.50
13198;DHT22;6664;52.514;13.440;2023-02-02T18:16:06;2.40;50.70
13198;DHT22;6664;52.514;13.440;2023-02-02T18:18:52;2.40;51.10
13198;DHT22;6664;52.514;13.440;2023-02-02T18:21:38;2.40;51.40
13198;DHT22;6664;52.514;13.440;2023-02-02T18:24:24;2.30;51.20
13198;DHT22;6664;52.514;13.440;2023-02-02T18:27:09;2.40;51.70
13198;DHT22;6664;52.514;13.440;2023-02-02T18:29:57;2.30;51.40
13198;DHT22;6664;52.514;13.440;2023-02-02T18:32:43;2.40;52.20
13198;DHT22;6664;52.514;13.440;2023-02-02T18:35:28;2.30;52.50
13198;DHT22;6664;52.514;13.440;2023-02-02T18:38:17;2.30;52.10
13198;DHT22;6664;52.514;13.440;2023-02-02T18:41:06;2.10;52.60
13198;DHT22;6664;52.514;13.440;2023-02-02T18:43:55;2.10;53.30
13198;DHT22;6664;52.514;13.440;2023-02-02T18:46:42;2.00;53.50
13198;DHT22;6664;52.514;13.440;2023-02-02T18:49:27;2.00;54.00
13198;DHT22;6664;52.514;13.440;2023-02-02T18:52:12;2.10;54.20
13198;DHT22;6664;52.514;13.440;2023-02-02T18:54:59;2.00;54.20
13198;DHT22;6664;52.514;13.440;2023-02-02T18:57:45;1.80;54.90
13198;DHT22;6664;52.514;13.440;2023-02-02T19:00:30;1.60;55.70
13198;DHT22;6664;52.514;13.440;2023-02-02T19:03:16;1.40;55.70
13198;DHT22;6664;52.514;13.440;2023-02-02T19:06:05;1.30;56.80
13198;DHT22;6664;52.514;13.440;2023-02-02T19:09:10;1.30;57.60
13198;DHT22;6664;52.514;13.440;2023-02-02T19:11:58;1.10;58.20
13198;DHT22;6664;52.514;13.440;2023-02-02T19:14:45;1.10;59.30
13198;DHT22;6664;52.514;13.440;2023-02-02T19:17:31;1.00;59.80
13198;DHT22;6664;52.514;13.440;2023-02-02T19:20:28;0.90;60.40
13198;DHT22;6664;52.514;13.440;2023-02-02T19:23:19;0.80;61.60
13198;DHT22;6664;52.514;13.440;2023-02-02T19:26:20;0.80;62.80
13198;DHT22;6664;52.514;13.440;2023-02-02T19:29:16;0.70;63.20
13198;DHT22;6664;52.514;13.440;2023-02-02T19:32:14;0.70;64.30
13198;DHT22;6664;52.514;13.440;2023-02-02T19:35:00;0.70;65.00
13198;DHT22;6664;52.514;13.440;2023-02-02T19:37:48;0.60;65.60
13198;DHT22;6664;52.514;13.440;2023-02-02T19:40:34;0.70;66.70
13198;DHT22;6664;52.514;13.440;2023-02-02T19:43:31;0.90;67.50
13198;DHT22;6664;52.514;13.440;2023-02-02T19:46:20;0.90;67.50
13198;DHT22;6664;52.514;13.440;2023-02-02T19:49:15;1.00;67.50
13198;DHT22;6664;52.514;13.440;2023-02-02T19:52:03;1.00;67.50
13198;DHT22;6664;52.514;13.440;2023-02-02T19:54:49;1.10;67.70
13198;DHT22;6664;52.514;13.440;2023-02-02T19:57:35;1.20;67.70
13198;DHT22;6664;52.514;13.440;2023-02-02T20:00:28;1.30;67.90
13198;DHT22;6664;52.514;13.440;2023-02-02T20:03:19;1.50;67.50
13198;DHT22;6664;52.514;13.440;2023-02-02T20:06:11;1.50;67.20
13198;DHT22;6664;52.514;13.440;2023-02-02T20:09:00;1.60;67.40
13198;DHT22;6664;52.514;13.440;2023-02-02T20:11:50;1.70;66.10
13198;DHT22;6664;52.514;13.440;2023-02-02T20:14:37;1.90;65.10
13198;DHT22;6664;52.514;13.440;2023-02-02T20:17:28;2.20;63.00
13198;DHT22;6664;52.514;13.440;2023-02-02T20:23:26;2.30;61.10
13198;DHT22;6664;52.514;13.440;2023-02-02T20:26:21;2.40;60.00
13198;DHT22;6664;52.514;13.440;2023-02-02T20:29:24;2.40;58.80
13198;DHT22;6664;52.514;13.440;2023-02-02T20:32:37;2.50;58.00
13198;DHT22;6664;52.514;13.440;2023-02-02T20:35:38;2.40;57.60
13198;DHT22;6664;52.514;13.440;2023-02-02T20:38:33;2.50;57.30